sensor_id;sensor_type;location;lat;lon;timestamp;P1;durP1;ratioP1;P2;durP2;ratioP2
55346;SDS011;41218;55.700;38.270;2023-04-02T00:01:42;26.85;;;10.57;;
55346;SDS011;41218;55.700;38.270;2023-04-02T00:06:43;29.97;;;10.77;;
55346;SDS011;41218;55.700;38.270;2023-04-02T00:11:47;28.85;;;11.00;;
55346;SDS011;41218;55.700;38.270;2023-04-02T00:16:50;29.95;;;11.35;;
55346;SDS011;41218;55.700;38.270;2023-04-02T00:21:51;29.55;;;11.38;;
55346;SDS011;41218;55.700;38.270;2023-04-02T00:26:53;32.42;;;11.50;;
55346;SDS011;41218;55.700;38.270;2023-04-02T00:31:55;30.35;;;11.15;;
55346;SDS011;41218;55.700;38.270;2023-04-02T00:36:58;29.42;;;11.38;;
55346;SDS011;41218;55.700;38.270;2023-04-02T00:42:00;31.33;;;11.85;;
55346;SDS011;41218;55.700;38.270;2023-04-02T00:47:16;32.08;;;11.55;;
55346;SDS011;41218;55.700;38.270;2023-04-02T00:52:19;32.75;;;12.20;;
55346;SDS011;41218;55.700;38.270;2023-04-02T00:57:25;31.77;;;11.93;;
55346;SDS011;41218;55.700;38.270;2023-04-02T01:02:28;30.08;;;12.18;;
55346;SDS011;41218;55.700;38.270;2023-04-02T01:07:46;33.10;;;11.70;;
55346;SDS011;41218;55.700;38.270;2023-04-02T01:18:42;38.03;;;11.88;;
55346;SDS011;41218;55.700;38.270;2023-04-02T01:34:23;36.20;;;12.80;;
55346;SDS011;41218;55.700;38.270;2023-04-02T01:39:29;39.17;;;13.05;;
55346;SDS011;41218;55.700;38.270;2023-04-02T01:44:38;33.08;;;12.35;;
55346;SDS011;41218;55.700;38.270;2023-04-02T01:49:44;33.08;;;12.80;;
55346;SDS011;41218;55.700;38.270;2023-04-02T01:54:45;30.50;;;12.23;;
55346;SDS011;41218;55.700;38.270;2023-04-02T01:59:46;36.90;;;12.27;;
55346;SDS011;41218;55.700;38.270;2023-04-02T02:04:47;32.23;;;12.37;;
55346;SDS011;41218;55.700;38.270;2023-04-02T02:09:48;32.07;;;12.77;;
55346;SDS011;41218;55.700;38.270;2023-04-02T02:14:50;33.20;;;12.60;;
55346;SDS011;41218;55.700;38.270;2023-04-02T02:19:52;34.60;;;13.63;;
55346;SDS011;41218;55.700;38.270;2023-04-02T02:24:56;32.58;;;12.82;;
55346;SDS011;41218;55.700;38.270;2023-04-02T02:35:14;34.63;;;13.73;;
55346;SDS011;41218;55.700;38.270;2023-04-02T02:40:22;33.83;;;13.70;;
55346;SDS011;41218;55.700;38.270;2023-04-02T02:45:31;35.17;;;14.15;;
55346;SDS011;41218;55.700;38.270;2023-04-02T02:50:37;35.28;;;13.50;;
55346;SDS011;41218;55.700;38.270;2023-04-02T02:55:40;35.30;;;13.30;;
55346;SDS011;41218;55.700;38.270;2023-04-02T03:00:41;33.67;;;12.40;;
55346;SDS011;41218;55.700;38.270;2023-04-02T03:05:42;33.72;;;12.45;;
55346;SDS011;41218;55.700;38.270;2023-04-02T03:10:59;35.63;;;13.43;;
55346;SDS011;41218;55.700;38.270;2023-04-02T03:26:22;31.75;;;11.73;;
55346;SDS011;41218;55.700;38.270;2023-04-02T03:31:58;34.30;;;11.73;;
55346;SDS011;41218;55.700;38.270;2023-04-02T03:36:57;32.10;;;11.85;;
55346;SDS011;41218;55.700;38.270;2023-04-02T03:47:23;29.13;;;11.63;;
55346;SDS011;41218;55.700;38.270;2023-04-02T03:52:38;28.38;;;11.40;;
55346;SDS011;41218;55.700;38.270;2023-04-02T03:57:44;25.40;;;10.30;;
55346;SDS011;41218;55.700;38.270;2023-04-02T04:08:16;26.60;;;10.48;;
55346;SDS011;41218;55.700;38.270;2023-04-02T04:14:04;26.35;;;9.98;;
55346;SDS011;41218;55.700;38.270;2023-04-02T04:19:37;24.60;;;10.63;;
55346;SDS011;41218;55.700;38.270;2023-04-02T04:24:23;27.42;;;9.50;;
55346;SDS011;41218;55.700;38.270;2023-04-02T04:29:29;27.35;;;10.05;;
55346;SDS011;41218;55.700;38.270;2023-04-02T04:34:33;22.58;;;9.23;;
55346;SDS011;41218;55.700;38.270;2023-04-02T04:39:49;22.13;;;8.90;;
55346;SDS011;41218;55.700;38.270;2023-04-02T04:55:39;27.05;;;10.40;;
55346;SDS011;41218;55.700;38.270;2023-04-02T05:00:46;26.33;;;9.23;;
55346;SDS011;41218;55.700;38.270;2023-04-02T05:06:07;27.33;;;9.52;;
55346;SDS011;41218;55.700;38.270;2023-04-02T05:17:03;21.40;;;8.68;;
55346;SDS011;41218;55.700;38.270;2023-04-02T05:22:14;22.17;;;8.95;;
55346;SDS011;41218;55.700;38.270;2023-04-02T05:32:36;25.77;;;9.82;;
55346;SDS011;41218;55.700;38.270;2023-04-02T05:37:42;22.98;;;9.48;;
55346;SDS011;41218;55.700;38.270;2023-04-02T05:42:46;25.13;;;10.27;;
55346;SDS011;41218;55.700;38.270;2023-04-02T05:47:49;26.10;;;10.20;;
55346;SDS011;41218;55.700;38.270;2023-04-02T06:08:57;24.30;;;10.55;;
55346;SDS011;41218;55.700;38.270;2023-04-02T06:14:04;29.30;;;10.10;;
55346;SDS011;41218;55.700;38.270;2023-04-02T06:19:06;24.92;;;10.25;;
55346;SDS011;41218;55.700;38.270;2023-04-02T06:24:13;23.48;;;9.80;;
55346;SDS011;41218;55.700;38.270;2023-04-02T06:29:33;24.95;;;10.25;;
55346;SDS011;41218;55.700;38.270;2023-04-02T06:34:39;20.02;;;9.35;;
55346;SDS011;41218;55.700;38.270;2023-04-02T06:39:41;24.02;;;9.55;;
55346;SDS011;41218;55.700;38.270;2023-04-02T06:44:42;22.70;;;9.60;;
55346;SDS011;41218;55.700;38.270;2023-04-02T06:49:44;21.08;;;8.43;;
55346;SDS011;41218;55.700;38.270;2023-04-02T06:55:23;20.75;;;9.13;;
55346;SDS011;41218;55.700;38.270;2023-04-02T07:00:34;21.77;;;9.20;;
55346;SDS011;41218;55.700;38.270;2023-04-02T07:05:37;21.88;;;8.75;;
55346;SDS011;41218;55.700;38.270;2023-04-02T07:10:37;23.90;;;9.13;;
55346;SDS011;41218;55.700;38.270;2023-04-02T07:15:38;19.60;;;8.47;;
55346;SDS011;41218;55.700;38.270;2023-04-02T07:20:39;18.53;;;8.30;;
55346;SDS011;41218;55.700;38.270;2023-04-02T07:25:40;20.58;;;9.00;;
55346;SDS011;41218;55.700;38.270;2023-04-02T07:30:41;19.70;;;8.43;;
55346;SDS011;41218;55.700;38.270;2023-04-02T07:35:42;20.83;;;8.43;;
55346;SDS011;41218;55.700;38.270;2023-04-02T07:40:43;19.73;;;9.10;;
55346;SDS011;41218;55.700;38.270;2023-04-02T07:45:43;22.13;;;8.37;;
55346;SDS011;41218;55.700;38.270;2023-04-02T07:50:44;16.98;;;7.80;;
55346;SDS011;41218;55.700;38.270;2023-04-02T07:55:45;17.97;;;7.57;;
55346;SDS011;41218;55.700;38.270;2023-04-02T08:00:51;17.95;;;7.85;;
55346;SDS011;41218;55.700;38.270;2023-04-02T08:05:52;18.73;;;7.93;;
55346;SDS011;41218;55.700;38.270;2023-04-02T08:10:54;17.92;;;7.32;;
55346;SDS011;41218;55.700;38.270;2023-04-02T08:15:56;15.53;;;7.27;;
55346;SDS011;41218;55.700;38.270;2023-04-02T08:20:58;15.38;;;7.22;;
55346;SDS011;41218;55.700;38.270;2023-04-02T08:25:59;22.75;;;7.78;;
55346;SDS011;41218;55.700;38.270;2023-04-02T08:31:00;19.88;;;7.18;;
55346;SDS011;41218;55.700;38.270;2023-04-02T08:36:01;18.75;;;7.45;;
55346;SDS011;41218;55.700;38.270;2023-04-02T08:41:02;19.03;;;7.10;;
55346;SDS011;41218;55.700;38.270;2023-04-02T08:51:21;18.13;;;6.70;;
55346;SDS011;41218;55.700;38.270;2023-04-02T09:01:45;12.88;;;6.47;;
55346;SDS011;41218;55.700;38.270;2023-04-02T09:06:55;15.15;;;6.82;;
55346;SDS011;41218;55.700;38.270;2023-04-02T09:11:59;16.45;;;7.07;;
55346;SDS011;41218;55.700;38.270;2023-04-02T09:17:03;13.35;;;6.60;;
55346;SDS011;41218;55.700;38.270;2023-04-02T09:22:11;11.45;;;6.05;;
55346;SDS011;41218;55.700;38.270;2023-04-02T09:27:17;12.20;;;5.57;;
55346;SDS011;41218;55.700;38.270;2023-04-02T09:37:26;13.45;;;6.40;;
55346;SDS011;41218;55.700;38.270;2023-04-02T09:42:29;11.73;;;5.55;;
55346;SDS011;41218;55.700;38.270;2023-04-02T09:47:33;16.60;;;5.95;;
55346;SDS011;41218;55.700;38.270;2023-04-02T09:52:33;11.63;;;5.60;;
55346;SDS011;41218;55.700;38.270;2023-04-02T09:57:34;15.30;;;6.07;;
55346;SDS011;41218;55.700;38.270;2023-04-02T10:02:37;12.63;;;5.50;;
55346;SDS011;41218;55.700;38.270;2023-04-02T10:07:39;11.23;;;5.85;;
55346;SDS011;41218;55.700;38.270;2023-04-02T10:12:43;13.85;;;6.43;;
55346;SDS011;41218;55.700;38.270;2023-04-02T10:17:56;14.43;;;6.30;;
55346;SDS011;41218;55.700;38.270;2023-04-02T10:23:02;12.55;;;6.35;;
55346;SDS011;41218;55.700;38.270;2023-04-02T10:33:34;12.05;;;6.30;;
55346;SDS011;41218;55.700;38.270;2023-04-02T10:54:34;13.93;;;6.28;;
55346;SDS011;41218;55.700;38.270;2023-04-02T10:59:38;18.33;;;7.32;;
55346;SDS011;41218;55.700;38.270;2023-04-02T11:04:44;12.25;;;6.70;;
55346;SDS011;41218;55.700;38.270;2023-04-02T11:09:46;13.27;;;6.72;;
55346;SDS011;41218;55.700;38.270;2023-04-02T11:14:51;15.88;;;6.88;;
55346;SDS011;41218;55.700;38.270;2023-04-02T11:19:53;14.18;;;6.80;;
55346;SDS011;41218;55.700;38.270;2023-04-02T11:24:55;13.98;;;6.63;;
55346;SDS011;41218;55.700;38.270;2023-04-02T11:30:19;14.68;;;6.60;;
55346;SDS011;41218;55.700;38.270;2023-04-02T11:35:26;15.52;;;6.68;;
55346;SDS011;41218;55.700;38.270;2023-04-02T11:40:52;14.27;;;6.70;;
55346;SDS011;41218;55.700;38.270;2023-04-02T11:45:55;18.23;;;7.70;;
55346;SDS011;41218;55.700;38.270;2023-04-02T11:50:58;15.93;;;7.03;;
55346;SDS011;41218;55.700;38.270;2023-04-02T11:56:04;18.40;;;7.53;;
55346;SDS011;41218;55.700;38.270;2023-04-02T12:06:48;18.98;;;8.18;;
55346;SDS011;41218;55.700;38.270;2023-04-02T12:12:26;19.42;;;8.27;;
55346;SDS011;41218;55.700;38.270;2023-04-02T12:17:38;13.57;;;7.20;;
55346;SDS011;41218;55.700;38.270;2023-04-02T12:22:45;18.73;;;8.10;;
55346;SDS011;41218;55.700;38.270;2023-04-02T12:38:26;17.75;;;7.55;;
55346;SDS011;41218;55.700;38.270;2023-04-02T12:43:32;18.15;;;7.97;;
55346;SDS011;41218;55.700;38.270;2023-04-02T12:48:34;19.15;;;7.65;;
55346;SDS011;41218;55.700;38.270;2023-04-02T12:53:37;18.63;;;7.72;;
55346;SDS011;41218;55.700;38.270;2023-04-02T12:58:40;18.05;;;7.32;;
55346;SDS011;41218;55.700;38.270;2023-04-02T13:03:41;17.13;;;6.88;;
55346;SDS011;41218;55.700;38.270;2023-04-02T13:08:42;15.82;;;6.75;;
55346;SDS011;41218;55.700;38.270;2023-04-02T13:13:44;15.03;;;7.03;;
55346;SDS011;41218;55.700;38.270;2023-04-02T13:18:47;19.58;;;7.65;;
55346;SDS011;41218;55.700;38.270;2023-04-02T13:23:48;14.32;;;6.93;;
55346;SDS011;41218;55.700;38.270;2023-04-02T13:28:59;17.33;;;6.90;;
55346;SDS011;41218;55.700;38.270;2023-04-02T13:34:14;12.98;;;6.40;;
55346;SDS011;41218;55.700;38.270;2023-04-02T13:44:18;17.97;;;6.97;;
55346;SDS011;41218;55.700;38.270;2023-04-02T13:49:20;15.85;;;7.05;;
55346;SDS011;41218;55.700;38.270;2023-04-02T13:59:29;13.18;;;5.80;;
55346;SDS011;41218;55.700;38.270;2023-04-02T14:04:30;11.93;;;5.57;;
55346;SDS011;41218;55.700;38.270;2023-04-02T14:16:16;9.80;;;5.40;;
55346;SDS011;41218;55.700;38.270;2023-04-02T14:31:55;10.73;;;5.07;;
55346;SDS011;41218;55.700;38.270;2023-04-02T14:37:22;9.98;;;4.88;;
55346;SDS011;41218;55.700;38.270;2023-04-02T14:42:38;13.02;;;5.13;;
55346;SDS011;41218;55.700;38.270;2023-04-02T14:47:50;10.88;;;4.60;;
55346;SDS011;41218;55.700;38.270;2023-04-02T14:52:59;8.15;;;4.63;;
55346;SDS011;41218;55.700;38.270;2023-04-02T14:58:04;12.35;;;5.05;;
55346;SDS011;41218;55.700;38.270;2023-04-02T15:08:24;10.48;;;5.30;;
55346;SDS011;41218;55.700;38.270;2023-04-02T15:13:30;9.63;;;5.00;;
55346;SDS011;41218;55.700;38.270;2023-04-02T15:18:36;7.53;;;4.68;;
55346;SDS011;41218;55.700;38.270;2023-04-02T15:23:43;7.97;;;4.90;;
55346;SDS011;41218;55.700;38.270;2023-04-02T15:34:16;8.55;;;4.50;;
55346;SDS011;41218;55.700;38.270;2023-04-02T15:56:04;9.02;;;3.80;;
55346;SDS011;41218;55.700;38.270;2023-04-02T16:12:20;5.55;;;3.80;;
55346;SDS011;41218;55.700;38.270;2023-04-02T16:17:23;8.45;;;4.47;;
55346;SDS011;41218;55.700;38.270;2023-04-02T16:22:30;7.47;;;3.85;;
55346;SDS011;41218;55.700;38.270;2023-04-02T16:27:34;8.13;;;4.00;;
55346;SDS011;41218;55.700;38.270;2023-04-02T16:53:58;8.23;;;3.78;;
55346;SDS011;41218;55.700;38.270;2023-04-02T17:04:13;10.37;;;4.07;;
55346;SDS011;41218;55.700;38.270;2023-04-02T17:09:52;10.60;;;4.13;;
55346;SDS011;41218;55.700;38.270;2023-04-02T17:15:00;6.75;;;3.50;;
55346;SDS011;41218;55.700;38.270;2023-04-02T17:20:11;7.07;;;4.45;;
55346;SDS011;41218;55.700;38.270;2023-04-02T17:25:27;7.75;;;4.60;;
55346;SDS011;41218;55.700;38.270;2023-04-02T17:30:34;8.88;;;4.22;;
55346;SDS011;41218;55.700;38.270;2023-04-02T17:46:51;6.45;;;3.72;;
55346;SDS011;41218;55.700;38.270;2023-04-02T17:51:56;7.70;;;4.10;;
55346;SDS011;41218;55.700;38.270;2023-04-02T17:57:39;5.63;;;3.33;;
55346;SDS011;41218;55.700;38.270;2023-04-02T18:03:08;7.38;;;3.75;;
55346;SDS011;41218;55.700;38.270;2023-04-02T18:08:21;7.28;;;4.13;;
55346;SDS011;41218;55.700;38.270;2023-04-02T18:50:48;7.47;;;3.78;;
55346;SDS011;41218;55.700;38.270;2023-04-02T18:55:50;6.97;;;3.85;;
55346;SDS011;41218;55.700;38.270;2023-04-02T19:01:03;6.35;;;3.83;;
55346;SDS011;41218;55.700;38.270;2023-04-02T19:06:08;6.68;;;3.58;;
55346;SDS011;41218;55.700;38.270;2023-04-02T19:11:14;7.65;;;3.80;;
55346;SDS011;41218;55.700;38.270;2023-04-02T19:42:45;7.25;;;3.53;;
55346;SDS011;41218;55.700;38.270;2023-04-02T19:47:48;7.60;;;3.72;;
55346;SDS011;41218;55.700;38.270;2023-04-02T19:52:48;6.73;;;3.90;;
55346;SDS011;41218;55.700;38.270;2023-04-02T19:57:49;8.00;;;4.18;;
55346;SDS011;41218;55.700;38.270;2023-04-02T20:02:50;8.10;;;4.00;;
55346;SDS011;41218;55.700;38.270;2023-04-02T20:07:50;7.50;;;4.47;;
55346;SDS011;41218;55.700;38.270;2023-04-02T20:12:51;7.93;;;4.07;;
55346;SDS011;41218;55.700;38.270;2023-04-02T20:17:51;8.07;;;4.50;;
55346;SDS011;41218;55.700;38.270;2023-04-02T20:22:52;8.07;;;4.70;;
55346;SDS011;41218;55.700;38.270;2023-04-02T20:27:52;9.20;;;4.47;;
55346;SDS011;41218;55.700;38.270;2023-04-02T20:32:53;8.63;;;4.37;;
55346;SDS011;41218;55.700;38.270;2023-04-02T20:37:54;8.63;;;4.53;;
55346;SDS011;41218;55.700;38.270;2023-04-02T20:42:55;9.27;;;4.65;;
55346;SDS011;41218;55.700;38.270;2023-04-02T20:47:56;8.10;;;4.43;;
55346;SDS011;41218;55.700;38.270;2023-04-02T20:52:57;7.50;;;4.50;;
55346;SDS011;41218;55.700;38.270;2023-04-02T20:57:59;7.80;;;4.30;;
55346;SDS011;41218;55.700;38.270;2023-04-02T21:02:59;11.80;;;4.67;;
55346;SDS011;41218;55.700;38.270;2023-04-02T21:08:00;9.23;;;4.00;;
55346;SDS011;41218;55.700;38.270;2023-04-02T21:13:00;8.43;;;4.30;;
55346;SDS011;41218;55.700;38.270;2023-04-02T21:18:01;6.93;;;4.00;;
55346;SDS011;41218;55.700;38.270;2023-04-02T21:23:02;8.37;;;4.27;;
55346;SDS011;41218;55.700;38.270;2023-04-02T21:28:02;9.00;;;4.53;;
55346;SDS011;41218;55.700;38.270;2023-04-02T21:33:03;7.97;;;4.67;;
55346;SDS011;41218;55.700;38.270;2023-04-02T21:38:03;7.70;;;3.93;;
55346;SDS011;41218;55.700;38.270;2023-04-02T21:43:04;8.80;;;4.43;;
55346;SDS011;41218;55.700;38.270;2023-04-02T21:48:04;9.87;;;4.63;;
55346;SDS011;41218;55.700;38.270;2023-04-02T21:53:05;7.97;;;3.80;;
55346;SDS011;41218;55.700;38.270;2023-04-02T21:58:06;8.00;;;4.63;;
55346;SDS011;41218;55.700;38.270;2023-04-02T22:03:06;7.57;;;3.90;;
55346;SDS011;41218;55.700;38.270;2023-04-02T22:08:07;9.43;;;4.10;;
55346;SDS011;41218;55.700;38.270;2023-04-02T22:13:07;7.77;;;4.47;;
55346;SDS011;41218;55.700;38.270;2023-04-02T22:18:08;6.63;;;3.90;;
55346;SDS011;41218;55.700;38.270;2023-04-02T22:23:08;8.43;;;4.03;;
55346;SDS011;41218;55.700;38.270;2023-04-02T22:28:09;6.00;;;3.55;;
55346;SDS011;41218;55.700;38.270;2023-04-02T22:33:10;6.37;;;3.67;;
55346;SDS011;41218;55.700;38.270;2023-04-02T22:38:11;6.47;;;4.13;;
55346;SDS011;41218;55.700;38.270;2023-04-02T22:43:11;7.80;;;4.20;;
55346;SDS011;41218;55.700;38.270;2023-04-02T22:48:12;6.30;;;3.90;;
55346;SDS011;41218;55.700;38.270;2023-04-02T22:53:12;6.73;;;3.80;;
55346;SDS011;41218;55.700;38.270;2023-04-02T23:03:14;6.83;;;3.83;;
55346;SDS011;41218;55.700;38.270;2023-04-02T23:08:15;7.53;;;3.40;;
55346;SDS011;41218;55.700;38.270;2023-04-02T23:13:15;5.80;;;3.30;;
55346;SDS011;41218;55.700;38.270;2023-04-02T23:18:16;7.33;;;3.60;;
55346;SDS011;41218;55.700;38.270;2023-04-02T23:23:16;5.17;;;3.10;;
55346;SDS011;41218;55.700;38.270;2023-04-02T23:28:17;6.23;;;3.43;;
55346;SDS011;41218;55.700;38.270;2023-04-02T23:33:17;6.20;;;3.60;;
55346;SDS011;41218;55.700;38.270;2023-04-02T23:38:18;6.17;;;3.53;;
55346;SDS011;41218;55.700;38.270;2023-04-02T23:43:18;8.97;;;3.80;;
55346;SDS011;41218;55.700;38.270;2023-04-02T23:48:19;6.80;;;3.70;;
55346;SDS011;41218;55.700;38.270;2023-04-02T23:53:20;6.93;;;4.10;;
55346;SDS011;41218;55.700;38.270;2023-04-02T23:58:20;6.67;;;3.47;;
